sensor_id;sensor_type;location;lat;lon;timestamp;pressure;altitude;pressure_sealevel;temperature;humidity
61898;BME280;47850;50.274;18.908;2023-04-03T00:00:43;98501.45;;;0.79;88.80
61898;BME280;47850;50.274;18.908;2023-04-03T00:03:17;98503.33;;;0.80;88.81
61898;BME280;47850;50.274;18.908;2023-04-03T00:05:46;98504.25;;;0.81;88.80
61898;BME280;47850;50.274;18.908;2023-04-03T00:08:14;98503.30;;;0.82;88.69
61898;BME280;47850;50.274;18.908;2023-04-03T00:10:42;98502.72;;;0.83;88.45
61898;BME280;47850;50.274;18.908;2023-04-03T00:13:10;98506.39;;;0.84;88.59
61898;BME280;47850;50.274;18.908;2023-04-03T00:15:38;98505.15;;;0.88;88.74
61898;BME280;47850;50.274;18.908;2023-04-03T00:18:07;98506.64;;;0.87;88.58
61898;BME280;47850;50.274;18.908;2023-04-03T00:20:35;98506.38;;;0.87;88.38
61898;BME280;47850;50.274;18.908;2023-04-03T00:23:02;98505.08;;;0.86;88.33
61898;BME280;47850;50.274;18.908;2023-04-03T00:25:30;98507.89;;;0.84;88.39
61898;BME280;47850;50.274;18.908;2023-04-03T00:27:58;98507.96;;;0.81;88.22
61898;BME280;47850;50.274;18.908;2023-04-03T00:30:26;98510.79;;;0.79;88.28
61898;BME280;47850;50.274;18.908;2023-04-03T00:32:54;98510.33;;;0.76;88.22
61898;BME280;47850;50.274;18.908;2023-04-03T00:35:22;98508.38;;;0.75;88.49
61898;BME280;47850;50.274;18.908;2023-04-03T00:37:51;98509.75;;;0.74;88.52
61898;BME280;47850;50.274;18.908;2023-04-03T00:40:19;98506.36;;;0.74;88.50
61898;BME280;47850;50.274;18.908;2023-04-03T00:42:48;98504.55;;;0.74;88.67
61898;BME280;47850;50.274;18.908;2023-04-03T00:47:53;98506.61;;;0.74;88.94
61898;BME280;47850;50.274;18.908;2023-04-03T00:50:21;98508.80;;;0.74;89.03
61898;BME280;47850;50.274;18.908;2023-04-03T00:52:49;98509.41;;;0.74;89.17
61898;BME280;47850;50.274;18.908;2023-04-03T00:55:17;98514.03;;;0.73;89.19
61898;BME280;47850;50.274;18.908;2023-04-03T00:57:45;98510.92;;;0.74;89.11
61898;BME280;47850;50.274;18.908;2023-04-03T01:00:15;98511.16;;;0.72;89.28
61898;BME280;47850;50.274;18.908;2023-04-03T01:02:43;98512.27;;;0.71;89.33
61898;BME280;47850;50.274;18.908;2023-04-03T01:05:12;98512.22;;;0.71;89.28
61898;BME280;47850;50.274;18.908;2023-04-03T01:07:41;98515.33;;;0.71;89.43
61898;BME280;47850;50.274;18.908;2023-04-03T01:10:10;98514.38;;;0.71;89.26
61898;BME280;47850;50.274;18.908;2023-04-03T01:12:39;98515.66;;;0.71;89.43
61898;BME280;47850;50.274;18.908;2023-04-03T01:15:11;98521.40;;;0.71;89.32
61898;BME280;47850;50.274;18.908;2023-04-03T01:17:44;98520.58;;;0.70;89.49
61898;BME280;47850;50.274;18.908;2023-04-03T01:25:19;98523.27;;;0.67;88.38
61898;BME280;47850;50.274;18.908;2023-04-03T01:27:47;98518.77;;;0.64;88.09
61898;BME280;47850;50.274;18.908;2023-04-03T01:30:16;98525.89;;;0.62;88.12
61898;BME280;47850;50.274;18.908;2023-04-03T01:32:44;98526.45;;;0.60;88.26
61898;BME280;47850;50.274;18.908;2023-04-03T01:35:12;98527.11;;;0.61;88.31
61898;BME280;47850;50.274;18.908;2023-04-03T01:37:40;98529.08;;;0.60;88.14
61898;BME280;47850;50.274;18.908;2023-04-03T01:40:08;98527.67;;;0.59;88.15
61898;BME280;47850;50.274;18.908;2023-04-03T01:42:35;98530.72;;;0.58;87.97
61898;BME280;47850;50.274;18.908;2023-04-03T01:45:03;98533.57;;;0.58;87.91
61898;BME280;47850;50.274;18.908;2023-04-03T01:47:31;98533.67;;;0.58;87.65
61898;BME280;47850;50.274;18.908;2023-04-03T01:49:59;98532.02;;;0.56;87.53
61898;BME280;47850;50.274;18.908;2023-04-03T01:52:26;98532.63;;;0.53;87.35
61898;BME280;47850;50.274;18.908;2023-04-03T01:54:54;98532.45;;;0.52;87.50
61898;BME280;47850;50.274;18.908;2023-04-03T01:57:22;98534.25;;;0.51;87.35
61898;BME280;47850;50.274;18.908;2023-04-03T01:59:49;98538.67;;;0.48;87.42
61898;BME280;47850;50.274;18.908;2023-04-03T02:02:18;98537.23;;;0.43;87.18
61898;BME280;47850;50.274;18.908;2023-04-03T02:04:47;98538.54;;;0.40;87.35
61898;BME280;47850;50.274;18.908;2023-04-03T02:07:15;98542.93;;;0.40;87.03
61898;BME280;47850;50.274;18.908;2023-04-03T02:09:43;98546.71;;;0.39;87.01
61898;BME280;47850;50.274;18.908;2023-04-03T02:12:10;98545.17;;;0.39;87.09
61898;BME280;47850;50.274;18.908;2023-04-03T02:14:38;98548.35;;;0.39;87.24
61898;BME280;47850;50.274;18.908;2023-04-03T02:17:06;98546.61;;;0.38;87.06
61898;BME280;47850;50.274;18.908;2023-04-03T02:19:35;98545.68;;;0.37;87.14
61898;BME280;47850;50.274;18.908;2023-04-03T02:22:03;98547.95;;;0.38;87.22
61898;BME280;47850;50.274;18.908;2023-04-03T02:24:32;98547.83;;;0.37;87.02
61898;BME280;47850;50.274;18.908;2023-04-03T02:26:59;98550.90;;;0.38;87.05
61898;BME280;47850;50.274;18.908;2023-04-03T02:29:27;98552.79;;;0.39;87.02
61898;BME280;47850;50.274;18.908;2023-04-03T02:31:55;98553.27;;;0.39;86.92
61898;BME280;47850;50.274;18.908;2023-04-03T02:34:23;98555.88;;;0.37;86.69
61898;BME280;47850;50.274;18.908;2023-04-03T02:36:50;98557.53;;;0.37;86.78
61898;BME280;47850;50.274;18.908;2023-04-03T02:39:18;98558.20;;;0.38;87.00
61898;BME280;47850;50.274;18.908;2023-04-03T02:41:46;98560.16;;;0.39;87.05
61898;BME280;47850;50.274;18.908;2023-04-03T02:44:14;98557.15;;;0.39;87.05
61898;BME280;47850;50.274;18.908;2023-04-03T02:46:41;98557.24;;;0.39;86.80
61898;BME280;47850;50.274;18.908;2023-04-03T02:49:09;98559.81;;;0.38;86.62
61898;BME280;47850;50.274;18.908;2023-04-03T02:51:37;98559.77;;;0.35;86.22
61898;BME280;47850;50.274;18.908;2023-04-03T02:54:04;98563.79;;;0.32;86.13
61898;BME280;47850;50.274;18.908;2023-04-03T02:56:32;98565.27;;;0.31;86.21
61898;BME280;47850;50.274;18.908;2023-04-03T02:59:00;98564.60;;;0.29;85.99
61898;BME280;47850;50.274;18.908;2023-04-03T03:01:29;98564.12;;;0.27;85.84
61898;BME280;47850;50.274;18.908;2023-04-03T03:03:59;98563.44;;;0.24;85.42
61898;BME280;47850;50.274;18.908;2023-04-03T03:06:27;98568.96;;;0.21;85.42
61898;BME280;47850;50.274;18.908;2023-04-03T03:08:55;98566.01;;;0.18;85.05
61898;BME280;47850;50.274;18.908;2023-04-03T03:11:22;98567.58;;;0.12;84.42
61898;BME280;47850;50.274;18.908;2023-04-03T03:13:50;98568.02;;;0.02;83.82
61898;BME280;47850;50.274;18.908;2023-04-03T03:16:17;98567.02;;;-0.07;83.94
61898;BME280;47850;50.274;18.908;2023-04-03T03:18:45;98568.71;;;-0.11;84.29
61898;BME280;47850;50.274;18.908;2023-04-03T03:21:13;98574.69;;;-0.12;84.28
61898;BME280;47850;50.274;18.908;2023-04-03T03:23:41;98570.09;;;-0.15;83.72
61898;BME280;47850;50.274;18.908;2023-04-03T03:26:10;98569.33;;;-0.19;83.89
61898;BME280;47850;50.274;18.908;2023-04-03T03:28:38;98573.45;;;-0.22;83.90
61898;BME280;47850;50.274;18.908;2023-04-03T03:31:07;98578.23;;;-0.26;84.08
61898;BME280;47850;50.274;18.908;2023-04-03T03:33:34;98578.51;;;-0.29;84.31
61898;BME280;47850;50.274;18.908;2023-04-03T03:36:02;98584.13;;;-0.32;84.01
61898;BME280;47850;50.274;18.908;2023-04-03T03:38:30;98585.81;;;-0.36;84.20
61898;BME280;47850;50.274;18.908;2023-04-03T03:40:58;98584.95;;;-0.40;84.02
61898;BME280;47850;50.274;18.908;2023-04-03T03:43:25;98587.75;;;-0.44;83.94
61898;BME280;47850;50.274;18.908;2023-04-03T03:45:53;98587.78;;;-0.50;83.80
61898;BME280;47850;50.274;18.908;2023-04-03T03:48:21;98591.67;;;-0.57;83.81
61898;BME280;47850;50.274;18.908;2023-04-03T03:50:49;98594.52;;;-0.59;84.03
61898;BME280;47850;50.274;18.908;2023-04-03T03:53:17;98592.36;;;-0.60;84.26
61898;BME280;47850;50.274;18.908;2023-04-03T03:55:46;98591.08;;;-0.62;84.14
61898;BME280;47850;50.274;18.908;2023-04-03T03:58:14;98590.99;;;-0.66;84.17
61898;BME280;47850;50.274;18.908;2023-04-03T04:00:42;98593.25;;;-0.71;84.10
61898;BME280;47850;50.274;18.908;2023-04-03T04:03:09;98599.63;;;-0.76;84.17
61898;BME280;47850;50.274;18.908;2023-04-03T04:05:37;98597.80;;;-0.81;84.15
61898;BME280;47850;50.274;18.908;2023-04-03T04:08:05;98602.03;;;-0.86;84.17
61898;BME280;47850;50.274;18.908;2023-04-03T04:10:33;98600.35;;;-0.92;84.22
61898;BME280;47850;50.274;18.908;2023-04-03T04:13:00;98605.29;;;-0.96;84.40
61898;BME280;47850;50.274;18.908;2023-04-03T04:15:28;98602.34;;;-1.04;84.24
61898;BME280;47850;50.274;18.908;2023-04-03T04:17:56;98604.66;;;-1.09;84.19
61898;BME280;47850;50.274;18.908;2023-04-03T04:20:24;98601.98;;;-1.15;84.75
61898;BME280;47850;50.274;18.908;2023-04-03T04:22:52;98608.80;;;-1.18;84.69
61898;BME280;47850;50.274;18.908;2023-04-03T04:25:19;98609.25;;;-1.21;84.74
61898;BME280;47850;50.274;18.908;2023-04-03T04:27:47;98612.08;;;-1.24;84.73
61898;BME280;47850;50.274;18.908;2023-04-03T04:30:15;98611.97;;;-1.29;84.67
61898;BME280;47850;50.274;18.908;2023-04-03T04:32:42;98611.93;;;-1.31;84.76
61898;BME280;47850;50.274;18.908;2023-04-03T04:35:10;98612.56;;;-1.32;84.90
61898;BME280;47850;50.274;18.908;2023-04-03T04:37:38;98614.54;;;-1.34;84.84
61898;BME280;47850;50.274;18.908;2023-04-03T04:40:06;98617.63;;;-1.34;84.87
61898;BME280;47850;50.274;18.908;2023-04-03T04:42:34;98615.84;;;-1.35;84.86
61898;BME280;47850;50.274;18.908;2023-04-03T04:45:02;98622.15;;;-1.35;84.99
61898;BME280;47850;50.274;18.908;2023-04-03T04:47:30;98626.34;;;-1.33;85.07
61898;BME280;47850;50.274;18.908;2023-04-03T04:49:57;98629.16;;;-1.30;84.98
61898;BME280;47850;50.274;18.908;2023-04-03T04:52:25;98628.01;;;-1.27;84.90
61898;BME280;47850;50.274;18.908;2023-04-03T04:54:53;98633.09;;;-1.25;84.87
61898;BME280;47850;50.274;18.908;2023-04-03T04:57:20;98635.25;;;-1.24;84.33
61898;BME280;47850;50.274;18.908;2023-04-03T04:59:48;98638.34;;;-1.25;83.94
61898;BME280;47850;50.274;18.908;2023-04-03T05:02:15;98640.52;;;-1.25;83.69
61898;BME280;47850;50.274;18.908;2023-04-03T05:04:43;98642.72;;;-1.25;83.88
61898;BME280;47850;50.274;18.908;2023-04-03T05:07:11;98648.34;;;-1.25;83.93
61898;BME280;47850;50.274;18.908;2023-04-03T05:09:39;98649.10;;;-1.25;83.89
61898;BME280;47850;50.274;18.908;2023-04-03T05:12:09;98649.61;;;-1.26;84.01
61898;BME280;47850;50.274;18.908;2023-04-03T05:14:37;98658.29;;;-1.26;83.82
61898;BME280;47850;50.274;18.908;2023-04-03T05:17:04;98657.86;;;-1.28;83.50
61898;BME280;47850;50.274;18.908;2023-04-03T05:19:32;98663.04;;;-1.30;83.18
61898;BME280;47850;50.274;18.908;2023-04-03T05:22:00;98664.42;;;-1.29;83.43
61898;BME280;47850;50.274;18.908;2023-04-03T05:24:27;98667.54;;;-1.28;83.43
61898;BME280;47850;50.274;18.908;2023-04-03T05:26:55;98668.48;;;-1.29;83.50
61898;BME280;47850;50.274;18.908;2023-04-03T05:29:23;98671.94;;;-1.30;83.23
61898;BME280;47850;50.274;18.908;2023-04-03T05:31:50;98669.64;;;-1.33;83.32
61898;BME280;47850;50.274;18.908;2023-04-03T05:34:18;98668.39;;;-1.35;83.41
61898;BME280;47850;50.274;18.908;2023-04-03T05:36:46;98672.55;;;-1.38;83.08
61898;BME280;47850;50.274;18.908;2023-04-03T05:39:13;98674.27;;;-1.42;82.99
61898;BME280;47850;50.274;18.908;2023-04-03T05:41:41;98675.98;;;-1.44;82.90
61898;BME280;47850;50.274;18.908;2023-04-03T05:44:08;98679.71;;;-1.47;82.90
61898;BME280;47850;50.274;18.908;2023-04-03T05:46:36;98679.26;;;-1.50;82.76
61898;BME280;47850;50.274;18.908;2023-04-03T05:49:04;98682.75;;;-1.49;82.79
61898;BME280;47850;50.274;18.908;2023-04-03T05:51:33;98683.91;;;-1.50;82.63
61898;BME280;47850;50.274;18.908;2023-04-03T05:54:21;98684.36;;;-1.51;82.68
61898;BME280;47850;50.274;18.908;2023-04-03T05:56:50;98683.39;;;-1.49;82.79
61898;BME280;47850;50.274;18.908;2023-04-03T05:59:18;98682.98;;;-1.47;82.75
61898;BME280;47850;50.274;18.908;2023-04-03T06:01:47;98686.71;;;-1.47;82.43
61898;BME280;47850;50.274;18.908;2023-04-03T06:04:15;98689.24;;;-1.48;82.12
61898;BME280;47850;50.274;18.908;2023-04-03T06:09:19;98693.52;;;-1.44;82.31
61898;BME280;47850;50.274;18.908;2023-04-03T06:11:47;98696.02;;;-1.41;82.44
61898;BME280;47850;50.274;18.908;2023-04-03T06:14:15;98694.73;;;-1.37;82.41
61898;BME280;47850;50.274;18.908;2023-04-03T06:16:43;98699.86;;;-1.31;82.23
61898;BME280;47850;50.274;18.908;2023-04-03T06:19:11;98703.10;;;-1.25;81.86
61898;BME280;47850;50.274;18.908;2023-04-03T06:21:39;98705.42;;;-1.22;81.07
61898;BME280;47850;50.274;18.908;2023-04-03T06:24:07;98709.95;;;-1.20;80.86
61898;BME280;47850;50.274;18.908;2023-04-03T06:26:34;98711.45;;;-1.17;80.95
61898;BME280;47850;50.274;18.908;2023-04-03T06:29:02;98716.52;;;-1.13;80.98
61898;BME280;47850;50.274;18.908;2023-04-03T06:31:30;98713.21;;;-1.10;80.71
61898;BME280;47850;50.274;18.908;2023-04-03T06:33:58;98714.45;;;-1.07;80.59
61898;BME280;47850;50.274;18.908;2023-04-03T06:36:25;98715.95;;;-1.03;80.64
61898;BME280;47850;50.274;18.908;2023-04-03T06:38:53;98718.52;;;-1.01;80.24
61898;BME280;47850;50.274;18.908;2023-04-03T06:41:21;98721.27;;;-1.00;79.98
61898;BME280;47850;50.274;18.908;2023-04-03T06:43:49;98721.45;;;-0.97;80.13
61898;BME280;47850;50.274;18.908;2023-04-03T06:46:18;98725.27;;;-0.92;80.12
61898;BME280;47850;50.274;18.908;2023-04-03T06:48:46;98726.27;;;-0.86;79.98
61898;BME280;47850;50.274;18.908;2023-04-03T06:51:24;98731.82;;;-0.80;79.49
61898;BME280;47850;50.274;18.908;2023-04-03T06:53:52;98735.02;;;-0.79;78.95
61898;BME280;47850;50.274;18.908;2023-04-03T06:56:21;98733.94;;;-0.76;78.94
61898;BME280;47850;50.274;18.908;2023-04-03T06:58:49;98738.33;;;-0.72;78.94
61898;BME280;47850;50.274;18.908;2023-04-03T07:01:18;98742.42;;;-0.71;78.49
61898;BME280;47850;50.274;18.908;2023-04-03T07:03:47;98746.84;;;-0.71;77.85
61898;BME280;47850;50.274;18.908;2023-04-03T07:06:16;98750.62;;;-0.73;77.29
61898;BME280;47850;50.274;18.908;2023-04-03T07:08:44;98752.02;;;-0.76;77.52
61898;BME280;47850;50.274;18.908;2023-04-03T07:11:12;98757.52;;;-0.74;77.91
61898;BME280;47850;50.274;18.908;2023-04-03T07:13:40;98755.74;;;-0.70;77.97
61898;BME280;47850;50.274;18.908;2023-04-03T07:16:08;98759.00;;;-0.64;77.93
61898;BME280;47850;50.274;18.908;2023-04-03T07:18:36;98765.05;;;-0.59;77.46
61898;BME280;47850;50.274;18.908;2023-04-03T07:21:04;98766.37;;;-0.58;76.70
61898;BME280;47850;50.274;18.908;2023-04-03T07:23:32;98769.04;;;-0.58;76.58
61898;BME280;47850;50.274;18.908;2023-04-03T07:25:59;98770.63;;;-0.55;76.78
61898;BME280;47850;50.274;18.908;2023-04-03T07:28:27;98773.50;;;-0.49;77.07
61898;BME280;47850;50.274;18.908;2023-04-03T07:31:03;98779.66;;;-0.42;76.66
61898;BME280;47850;50.274;18.908;2023-04-03T07:33:30;98782.15;;;-0.38;76.11
61898;BME280;47850;50.274;18.908;2023-04-03T07:35:58;98785.23;;;-0.37;75.58
61898;BME280;47850;50.274;18.908;2023-04-03T07:38:27;98784.84;;;-0.39;75.13
61898;BME280;47850;50.274;18.908;2023-04-03T07:40:55;98783.68;;;-0.43;74.22
61898;BME280;47850;50.274;18.908;2023-04-03T07:43:23;98786.01;;;-0.47;73.98
61898;BME280;47850;50.274;18.908;2023-04-03T07:45:52;98782.30;;;-0.48;73.92
61898;BME280;47850;50.274;18.908;2023-04-03T07:48:22;98780.11;;;-0.45;74.15
61898;BME280;47850;50.274;18.908;2023-04-03T07:50:50;98780.45;;;-0.38;73.96
61898;BME280;47850;50.274;18.908;2023-04-03T07:53:18;98779.52;;;-0.29;73.70
61898;BME280;47850;50.274;18.908;2023-04-03T07:55:47;98776.23;;;-0.16;73.78
61898;BME280;47850;50.274;18.908;2023-04-03T07:58:16;98776.63;;;-0.04;72.94
61898;BME280;47850;50.274;18.908;2023-04-03T08:00:44;98779.36;;;0.08;72.71
61898;BME280;47850;50.274;18.908;2023-04-03T08:03:12;98778.27;;;0.20;72.29
61898;BME280;47850;50.274;18.908;2023-04-03T08:05:41;98779.77;;;0.33;72.16
61898;BME280;47850;50.274;18.908;2023-04-03T08:08:13;98781.95;;;0.43;71.91
61898;BME280;47850;50.274;18.908;2023-04-03T08:10:41;98778.10;;;0.49;70.28
61898;BME280;47850;50.274;18.908;2023-04-03T08:13:09;98779.64;;;0.51;70.07
61898;BME280;47850;50.274;18.908;2023-04-03T08:15:37;98777.15;;;0.56;69.97
61898;BME280;47850;50.274;18.908;2023-04-03T08:18:04;98783.45;;;0.57;68.84
61898;BME280;47850;50.274;18.908;2023-04-03T08:20:32;98786.32;;;0.58;67.76
61898;BME280;47850;50.274;18.908;2023-04-03T08:23:00;98786.64;;;0.60;66.14
61898;BME280;47850;50.274;18.908;2023-04-03T08:25:27;98784.10;;;0.65;64.91
61898;BME280;47850;50.274;18.908;2023-04-03T08:27:56;98786.46;;;0.76;66.26
61898;BME280;47850;50.274;18.908;2023-04-03T08:30:24;98786.38;;;0.87;65.65
61898;BME280;47850;50.274;18.908;2023-04-03T08:32:52;98786.06;;;0.96;64.83
61898;BME280;47850;50.274;18.908;2023-04-03T08:35:20;98788.05;;;1.05;63.48
61898;BME280;47850;50.274;18.908;2023-04-03T08:37:48;98788.38;;;1.11;61.53
61898;BME280;47850;50.274;18.908;2023-04-03T08:40:16;98787.52;;;1.15;61.72
61898;BME280;47850;50.274;18.908;2023-04-03T08:48:04;98785.38;;;1.44;62.48
61898;BME280;47850;50.274;18.908;2023-04-03T08:50:33;98781.22;;;1.58;62.07
61898;BME280;47850;50.274;18.908;2023-04-03T08:53:03;98785.21;;;1.69;59.60
61898;BME280;47850;50.274;18.908;2023-04-03T08:55:34;98791.48;;;1.74;57.92
61898;BME280;47850;50.274;18.908;2023-04-03T08:58:06;98790.59;;;1.83;55.72
61898;BME280;47850;50.274;18.908;2023-04-03T09:00:57;98790.70;;;1.91;54.38
61898;BME280;47850;50.274;18.908;2023-04-03T09:03:22;98791.52;;;1.99;54.65
61898;BME280;47850;50.274;18.908;2023-04-03T09:08:43;98784.90;;;2.12;54.95
61898;BME280;47850;50.274;18.908;2023-04-03T09:14:04;98785.98;;;2.25;51.72
61898;BME280;47850;50.274;18.908;2023-04-03T09:16:37;98783.96;;;2.31;52.73
61898;BME280;47850;50.274;18.908;2023-04-03T09:21:36;98794.56;;;2.44;50.30
61898;BME280;47850;50.274;18.908;2023-04-03T09:24:05;98789.70;;;2.46;50.76
61898;BME280;47850;50.274;18.908;2023-04-03T09:29:05;98793.64;;;2.56;50.18
61898;BME280;47850;50.274;18.908;2023-04-03T09:31:37;98798.22;;;2.56;49.91
61898;BME280;47850;50.274;18.908;2023-04-03T09:34:15;98794.36;;;2.57;50.18
61898;BME280;47850;50.274;18.908;2023-04-03T09:36:50;98804.98;;;2.63;50.64
61898;BME280;47850;50.274;18.908;2023-04-03T09:39:20;98801.03;;;2.67;49.55
61898;BME280;47850;50.274;18.908;2023-04-03T09:41:58;98795.18;;;2.73;49.85
61898;BME280;47850;50.274;18.908;2023-04-03T09:44:28;98798.56;;;2.82;49.64
61898;BME280;47850;50.274;18.908;2023-04-03T09:46:57;98803.81;;;2.90;49.67
61898;BME280;47850;50.274;18.908;2023-04-03T09:49:25;98806.73;;;2.91;49.67
61898;BME280;47850;50.274;18.908;2023-04-03T09:51:53;98807.34;;;2.92;51.26
61898;BME280;47850;50.274;18.908;2023-04-03T09:54:39;98811.02;;;2.87;50.87
61898;BME280;47850;50.274;18.908;2023-04-03T09:57:12;98813.39;;;2.79;50.04
61898;BME280;47850;50.274;18.908;2023-04-03T09:59:42;98818.71;;;2.77;48.01
61898;BME280;47850;50.274;18.908;2023-04-03T10:04:39;98827.77;;;2.55;47.88
61898;BME280;47850;50.274;18.908;2023-04-03T10:07:27;98822.73;;;2.45;47.85
61898;BME280;47850;50.274;18.908;2023-04-03T10:09:58;98820.48;;;2.49;48.96
61898;BME280;47850;50.274;18.908;2023-04-03T10:12:27;98814.70;;;2.61;48.55
61898;BME280;47850;50.274;18.908;2023-04-03T10:14:56;98820.59;;;2.67;47.26
61898;BME280;47850;50.274;18.908;2023-04-03T10:25:44;98823.98;;;2.97;47.71
61898;BME280;47850;50.274;18.908;2023-04-03T10:33:48;98824.04;;;3.06;46.85
61898;BME280;47850;50.274;18.908;2023-04-03T10:46:55;98828.59;;;2.61;48.88
61898;BME280;47850;50.274;18.908;2023-04-03T10:55:08;98822.11;;;3.03;47.68
61898;BME280;47850;50.274;18.908;2023-04-03T10:57:26;98820.23;;;3.13;47.70
61898;BME280;47850;50.274;18.908;2023-04-03T11:00:06;98817.30;;;3.34;47.55
61898;BME280;47850;50.274;18.908;2023-04-03T11:02:59;98810.46;;;3.69;47.32
61898;BME280;47850;50.274;18.908;2023-04-03T11:05:34;98813.48;;;4.07;45.08
61898;BME280;47850;50.274;18.908;2023-04-03T11:08:17;98810.83;;;4.26;44.05
61898;BME280;47850;50.274;18.908;2023-04-03T11:10:49;98810.46;;;4.40;43.43
61898;BME280;47850;50.274;18.908;2023-04-03T11:13:20;98815.25;;;4.60;44.95
61898;BME280;47850;50.274;18.908;2023-04-03T11:15:51;98804.70;;;4.88;43.92
61898;BME280;47850;50.274;18.908;2023-04-03T11:18:35;98797.41;;;5.15;43.35
61898;BME280;47850;50.274;18.908;2023-04-03T11:23:51;98800.98;;;5.21;40.27
61898;BME280;47850;50.274;18.908;2023-04-03T11:26:22;98795.73;;;5.28;39.26
61898;BME280;47850;50.274;18.908;2023-04-03T11:28:53;98795.86;;;5.53;38.84
61898;BME280;47850;50.274;18.908;2023-04-03T11:31:29;98794.02;;;5.77;38.56
61898;BME280;47850;50.274;18.908;2023-04-03T11:34:15;98795.77;;;6.15;39.09
61898;BME280;47850;50.274;18.908;2023-04-03T11:36:49;98789.96;;;6.63;40.13
61898;BME280;47850;50.274;18.908;2023-04-03T11:41:47;98785.32;;;7.62;38.76
61898;BME280;47850;50.274;18.908;2023-04-03T11:44:34;98783.45;;;7.71;38.13
61898;BME280;47850;50.274;18.908;2023-04-03T11:47:04;98789.61;;;7.53;38.30
61898;BME280;47850;50.274;18.908;2023-04-03T11:55:41;98792.84;;;6.52;37.37
61898;BME280;47850;50.274;18.908;2023-04-03T12:16:05;98773.84;;;9.08;34.45
61898;BME280;47850;50.274;18.908;2023-04-03T12:18:40;98777.41;;;9.17;33.91
61898;BME280;47850;50.274;18.908;2023-04-03T12:21:10;98775.00;;;8.95;33.74
61898;BME280;47850;50.274;18.908;2023-04-03T12:23:55;98778.37;;;8.52;32.84
61898;BME280;47850;50.274;18.908;2023-04-03T12:26:25;98775.08;;;8.26;33.75
61898;BME280;47850;50.274;18.908;2023-04-03T12:28:54;98768.96;;;8.72;34.57
61898;BME280;47850;50.274;18.908;2023-04-03T12:31:24;98773.71;;;9.07;34.12
61898;BME280;47850;50.274;18.908;2023-04-03T12:37:02;98770.27;;;8.38;33.67
61898;BME280;47850;50.274;18.908;2023-04-03T12:42:05;98767.83;;;8.78;32.53
61898;BME280;47850;50.274;18.908;2023-04-03T12:49:56;98761.89;;;10.47;30.62
61898;BME280;47850;50.274;18.908;2023-04-03T12:54:56;98763.84;;;10.29;30.61
61898;BME280;47850;50.274;18.908;2023-04-03T12:57:25;98763.67;;;9.91;30.23
61898;BME280;47850;50.274;18.908;2023-04-03T12:59:54;98766.30;;;9.34;30.45
61898;BME280;47850;50.274;18.908;2023-04-03T13:02:29;98763.81;;;9.23;30.98
61898;BME280;47850;50.274;18.908;2023-04-03T13:04:58;98753.38;;;10.03;30.51
61898;BME280;47850;50.274;18.908;2023-04-03T13:09:57;98760.12;;;9.89;31.59
61898;BME280;47850;50.274;18.908;2023-04-03T13:12:25;98763.83;;;9.55;32.76
61898;BME280;47850;50.274;18.908;2023-04-03T13:14:57;98757.15;;;9.81;32.25
61898;BME280;47850;50.274;18.908;2023-04-03T13:17:25;98760.14;;;11.07;31.49
61898;BME280;47850;50.274;18.908;2023-04-03T13:19:53;98759.72;;;12.71;28.51
61898;BME280;47850;50.274;18.908;2023-04-03T13:24:49;98753.16;;;14.91;25.79
61898;BME280;47850;50.274;18.908;2023-04-03T13:27:18;98760.97;;;14.87;24.16
61898;BME280;47850;50.274;18.908;2023-04-03T13:29:49;98767.09;;;13.60;24.84
61898;BME280;47850;50.274;18.908;2023-04-03T13:32:24;98767.74;;;14.09;23.68
61898;BME280;47850;50.274;18.908;2023-04-03T13:34:52;98764.45;;;15.43;23.83
61898;BME280;47850;50.274;18.908;2023-04-03T13:37:31;98762.28;;;17.01;23.72
61898;BME280;47850;50.274;18.908;2023-04-03T13:40:11;98760.75;;;18.59;22.86
61898;BME280;47850;50.274;18.908;2023-04-03T13:42:40;98768.91;;;18.91;22.04
61898;BME280;47850;50.274;18.908;2023-04-03T13:45:17;98778.06;;;17.33;22.13
61898;BME280;47850;50.274;18.908;2023-04-03T13:47:45;98775.01;;;16.79;22.19
61898;BME280;47850;50.274;18.908;2023-04-03T13:50:15;98778.11;;;17.38;20.72
61898;BME280;47850;50.274;18.908;2023-04-03T13:52:48;98773.61;;;18.27;20.74
61898;BME280;47850;50.274;18.908;2023-04-03T13:55:27;98765.89;;;19.55;21.07
61898;BME280;47850;50.274;18.908;2023-04-03T14:03:01;98781.73;;;16.49;21.68
61898;BME280;47850;50.274;18.908;2023-04-03T14:05:29;98778.42;;;14.63;22.46
61898;BME280;47850;50.274;18.908;2023-04-03T14:07:56;98779.99;;;12.84;23.74
61898;BME280;47850;50.274;18.908;2023-04-03T14:10:24;98779.80;;;11.58;24.87
61898;BME280;47850;50.274;18.908;2023-04-03T14:12:52;98775.60;;;12.44;25.13
61898;BME280;47850;50.274;18.908;2023-04-03T14:15:22;98771.33;;;14.31;24.21
61898;BME280;47850;50.274;18.908;2023-04-03T14:17:51;98769.68;;;15.65;22.30
61898;BME280;47850;50.274;18.908;2023-04-03T14:20:20;98775.34;;;15.33;22.31
61898;BME280;47850;50.274;18.908;2023-04-03T14:22:49;98775.91;;;16.58;20.79
61898;BME280;47850;50.274;18.908;2023-04-03T14:25:17;98773.88;;;16.94;20.94
61898;BME280;47850;50.274;18.908;2023-04-03T14:27:46;98768.55;;;15.02;22.40
61898;BME280;47850;50.274;18.908;2023-04-03T14:30:18;98771.75;;;13.17;23.42
61898;BME280;47850;50.274;18.908;2023-04-03T14:32:46;98777.39;;;11.78;24.65
61898;BME280;47850;50.274;18.908;2023-04-03T14:35:14;98772.09;;;12.55;24.74
61898;BME280;47850;50.274;18.908;2023-04-03T14:37:43;98769.55;;;13.59;23.97
61898;BME280;47850;50.274;18.908;2023-04-03T14:40:16;98770.58;;;13.22;24.21
61898;BME280;47850;50.274;18.908;2023-04-03T14:42:44;98771.39;;;14.23;23.73
61898;BME280;47850;50.274;18.908;2023-04-03T14:45:12;98771.91;;;13.54;24.26
61898;BME280;47850;50.274;18.908;2023-04-03T14:48:02;98766.52;;;12.27;25.98
61898;BME280;47850;50.274;18.908;2023-04-03T14:50:28;98780.13;;;10.97;26.83
61898;BME280;47850;50.274;18.908;2023-04-03T14:52:57;98778.39;;;9.90;27.50
61898;BME280;47850;50.274;18.908;2023-04-03T14:55:25;98786.77;;;9.06;28.62
61898;BME280;47850;50.274;18.908;2023-04-03T14:57:53;98785.32;;;8.45;29.45